Time;durP1;ratioP1;P1;durP2;ratioP2;P2;SDS_P1;SDS_P2;PMS_P1;PMS_P2;Temp;Humidity;BMP_temperature;BMP_pressure;BME280_temperature;BME280_humidity;BME280_pressure;Samples;Min_cycle;Max_cycle;Signal;HPM_P1;HPM_P2
2023/04/01 00:01:55;;;;;;;10.63;3.05;;;;;;;8.63;100.00;99034.06;5222282;28;20030;-66
2023/04/01 00:04:27;;;;;;;15.35;3.33;;;;;;;8.62;100.00;99041.19;5224232;28;20052;-66
2023/04/01 00:06:59;;;;;;;10.95;2.90;;;;;;;8.62;100.00;99045.66;5225803;28;20822;-66
2023/04/01 00:09:30;;;;;;;12.55;3.10;;;;;;;8.61;100.00;99039.53;5226365;28;20052;-66
2023/04/01 00:12:02;;;;;;;10.45;3.22;;;;;;;8.60;100.00;99039.66;5220558;28;20029;-66
2023/04/01 00:14:34;;;;;;;9.98;3.45;;;;;;;8.61;100.00;99042.19;5221637;28;20053;-66
2023/04/01 00:17:05;;;;;;;12.35;3.70;;;;;;;8.59;100.00;99037.97;5220104;28;20033;-66
2023/04/01 00:19:37;;;;;;;11.02;3.65;;;;;;;8.63;100.00;99039.38;5222911;28;20118;-66
2023/04/01 00:22:11;;;;;;;9.95;3.50;;;;;;;8.61;100.00;99043.97;5226050;28;20021;-66
2023/04/01 00:24:42;;;;;;;8.65;3.70;;;;;;;8.59;100.00;99043.28;5212461;28;20561;-66
2023/04/01 00:27:15;;;;;;;10.10;3.33;;;;;;;8.59;100.00;99049.47;5223872;28;20025;-65
2023/04/01 00:29:47;;;;;;;10.77;3.75;;;;;;;8.58;100.00;99042.47;5223171;28;20435;-65
2023/04/01 00:32:18;;;;;;;8.77;3.35;;;;;;;8.59;100.00;99043.28;5225287;28;20048;-66
2023/04/01 00:34:51;;;;;;;9.52;4.03;;;;;;;8.56;100.00;99049.75;5228272;28;20103;-65
2023/04/01 00:37:22;;;;;;;8.82;3.45;;;;;;;8.57;100.00;99062.06;5228027;28;20029;-65
2023/04/01 00:39:55;;;;;;;11.02;3.90;;;;;;;8.56;100.00;99057.72;5225045;28;20033;-66
2023/04/01 00:42:26;;;;;;;10.48;3.53;;;;;;;8.57;100.00;99059.41;5236367;28;20116;-66
2023/04/01 00:44:58;;;;;;;6.85;3.63;;;;;;;8.57;100.00;99062.06;5230228;28;20032;-66
2023/04/01 00:47:29;;;;;;;8.88;4.28;;;;;;;8.55;100.00;99060.53;5222769;28;20163;-66
2023/04/01 00:50:01;;;;;;;11.18;4.07;;;;;;;8.57;100.00;99063.88;5224024;28;20029;-66
2023/04/01 00:52:32;;;;;;;9.20;3.67;;;;;;;8.55;100.00;99073.81;5225742;28;20043;-66
2023/04/01 00:55:07;;;;;;;10.32;4.10;;;;;;;8.56;100.00;99071.03;5226848;28;20030;-66
2023/04/01 00:57:41;;;;;;;8.00;3.75;;;;;;;8.56;100.00;99072.84;5225221;28;20480;-66
2023/04/01 01:00:14;;;;;;;8.10;3.83;;;;;;;8.57;100.00;99071.84;5228927;28;20053;-66
2023/04/01 01:02:49;;;;;;;8.73;4.00;;;;;;;8.55;100.00;99072.03;5228201;28;20028;-66
2023/04/01 01:05:31;;;;;;;8.32;5.07;;;;;;;8.56;100.00;99081.66;5227547;28;20140;-66
2023/04/01 01:08:24;;;;;;;6.90;4.10;;;;;;;8.57;100.00;99077.16;5224378;28;20057;-66
2023/04/01 01:10:55;;;;;;;9.27;5.45;;;;;;;8.61;100.00;99078.53;5225872;28;20459;-66
2023/04/01 01:13:58;;;;;;;10.65;5.60;;;;;;;8.59;100.00;99077.84;5231104;28;20485;-66
2023/04/01 01:16:40;;;;;;;7.85;4.70;;;;;;;8.57;100.00;99079.81;5227641;28;20033;-65
2023/04/01 01:19:30;;;;;;;8.43;4.63;;;;;;;8.58;100.00;99089.47;5228132;28;20387;-66
2023/04/01 01:22:22;;;;;;;8.80;4.93;;;;;;;8.59;100.00;99081.38;5225497;28;20021;-66
2023/04/01 01:25:27;;;;;;;9.88;5.10;;;;;;;8.57;100.00;99082.47;5226792;28;20582;-66
2023/04/01 01:28:20;;;;;;;8.88;5.05;;;;;;;8.59;100.00;99088.47;5226427;28;20156;-66
2023/04/01 01:30:58;;;;;;;8.77;5.13;;;;;;;8.59;100.00;99080.50;5227976;28;20030;-66
2023/04/01 01:33:49;;;;;;;10.18;5.60;;;;;;;8.59;100.00;99083.16;5228541;28;20053;-66
2023/04/01 01:36:21;;;;;;;9.13;5.75;;;;;;;8.57;100.00;99090.47;5225933;28;20041;-66
2023/04/01 01:38:53;;;;;;;10.77;7.38;;;;;;;8.57;100.00;99085.13;5223277;28;20025;-66
2023/04/01 01:41:27;;;;;;;14.15;7.97;;;;;;;8.55;100.00;99092.44;5227235;28;20056;-66
2023/04/01 01:44:02;;;;;;;13.07;8.35;;;;;;;8.57;100.00;99098.44;5223318;28;20556;-66
2023/04/01 01:46:34;;;;;;;12.73;8.85;;;;;;;8.55;100.00;99100.41;5228603;28;20036;-66
2023/04/01 01:49:10;;;;;;;14.05;9.25;;;;;;;8.57;100.00;99106.41;5226103;28;20033;-66
2023/04/01 01:51:42;;;;;;;15.45;9.45;;;;;;;8.55;100.00;99116.34;5229046;28;20170;-67
2023/04/01 01:54:17;;;;;;;16.10;9.88;;;;;;;8.55;100.00;99111.03;5227208;28;20061;-66
2023/04/01 01:56:56;;;;;;;14.25;9.20;;;;;;;8.54;100.00;99110.22;5228621;28;20037;-66
2023/04/01 01:59:29;;;;;;;14.93;10.00;;;;;;;8.51;100.00;99105.16;5231601;28;20389;-66
2023/04/01 02:02:07;;;;;;;15.82;10.57;;;;;;;8.51;100.00;99117.63;5233617;28;20758;-66
2023/04/01 02:04:42;;;;;;;14.68;10.40;;;;;;;8.50;100.00;99118.63;5229217;28;20391;-66
2023/04/01 02:07:26;;;;;;;17.83;11.13;;;;;;;8.50;100.00;99123.94;5221749;28;20037;-66
2023/04/01 02:09:58;;;;;;;14.35;9.70;;;;;;;8.45;100.00;99116.41;5225713;28;20553;-66
2023/04/01 02:12:30;;;;;;;17.55;10.35;;;;;;;8.48;100.00;99121.44;5225577;28;20468;-66
2023/04/01 02:15:12;;;;;;;19.35;11.65;;;;;;;8.47;100.00;99127.72;5230746;28;20055;-66
2023/04/01 02:17:45;;;;;;;18.70;12.20;;;;;;;8.44;100.00;99131.50;5224504;28;20368;-66
2023/04/01 02:20:21;;;;;;;23.45;14.43;;;;;;;8.44;100.00;99128.84;5225568;28;20064;-66
2023/04/01 02:22:59;;;;;;;24.45;13.82;;;;;;;8.43;100.00;99129.00;5226534;28;20373;-66
2023/04/01 02:25:35;;;;;;;25.27;14.43;;;;;;;8.42;100.00;99133.47;5225348;28;20070;-66
2023/04/01 02:28:09;;;;;;;27.10;14.18;;;;;;;8.46;100.00;99133.16;5223008;28;20029;-66
2023/04/01 02:30:43;;;;;;;24.27;13.43;;;;;;;8.43;100.00;99131.66;5225134;28;20033;-65
2023/04/01 02:33:15;;;;;;;27.25;14.98;;;;;;;8.42;100.00;99130.81;5223728;28;20499;-66
2023/04/01 02:35:47;;;;;;;28.33;13.73;;;;;;;8.40;100.00;99138.06;5224336;28;20478;-66
2023/04/01 02:38:18;;;;;;;28.25;15.75;;;;;;;8.40;100.00;99139.91;5224685;28;20029;-66
2023/04/01 02:40:55;;;;;;;29.02;15.20;;;;;;;8.39;100.00;99136.38;5225770;28;20119;-66
2023/04/01 02:43:27;;;;;;;26.77;15.18;;;;;;;8.38;100.00;99133.88;5223430;28;20445;-66
2023/04/01 02:45:58;;;;;;;28.30;16.30;;;;;;;8.40;100.00;99135.41;5225217;28;20103;-66
2023/04/01 02:48:30;;;;;;;34.15;16.65;;;;;;;8.40;100.00;99139.91;5227008;28;20507;-66
2023/04/01 02:51:01;;;;;;;33.40;17.10;;;;;;;8.39;100.00;99143.53;5228792;28;20156;-66
2023/04/01 02:53:33;;;;;;;30.92;16.73;;;;;;;8.38;100.00;99139.19;5225592;28;20108;-66
2023/04/01 02:56:04;;;;;;;32.22;16.85;;;;;;;8.37;100.00;99148.16;5226744;28;20021;-66
2023/04/01 02:58:36;;;;;;;34.13;16.15;;;;;;;8.35;100.00;99142.97;5222549;28;20036;-66
2023/04/01 03:01:08;;;;;;;31.42;16.27;;;;;;;8.34;100.00;99149.28;5226468;28;20063;-66
2023/04/01 03:03:39;;;;;;;30.85;15.75;;;;;;;8.34;100.00;99153.75;5222885;28;20466;-67
2023/04/01 03:06:13;;;;;;;29.95;14.68;;;;;;;8.33;100.00;99158.22;5227971;28;20119;-66
2023/04/01 03:08:45;;;;;;;34.75;15.48;;;;;;;8.34;100.00;99162.59;5219745;28;20033;-66
2023/04/01 03:11:16;;;;;;;29.85;15.48;;;;;;;8.33;100.00;99152.09;5220720;28;20049;-66
2023/04/01 03:13:48;;;;;;;35.00;16.23;;;;;;;8.33;100.00;99160.88;5219269;28;20056;-66
2023/04/01 03:16:20;;;;;;;29.80;14.82;;;;;;;8.32;100.00;99169.88;5224066;28;20028;-66
2023/04/01 03:18:52;;;;;;;34.13;15.32;;;;;;;8.34;100.00;99167.03;5226538;28;20155;-66
2023/04/01 03:21:24;;;;;;;32.47;15.30;;;;;;;8.34;100.00;99173.22;5225156;28;20034;-66
2023/04/01 03:23:55;;;;;;;28.35;14.18;;;;;;;8.35;100.00;99174.03;5223551;28;20234;-66
2023/04/01 03:26:27;;;;;;;27.73;15.25;;;;;;;8.32;100.00;99172.53;5226962;28;20115;-66
2023/04/01 03:28:59;;;;;;;33.28;16.38;;;;;;;8.32;100.00;99175.19;5224952;28;20037;-66
2023/04/01 03:31:30;;;;;;;28.90;14.82;;;;;;;8.32;100.00;99179.63;5223309;28;20033;-66
2023/04/01 03:34:01;;;;;;;29.38;15.60;;;;;;;8.32;100.00;99180.50;5222464;28;20601;-66
2023/04/01 03:36:33;;;;;;;32.55;14.50;;;;;;;8.30;100.00;99181.59;5222692;28;20029;-66
2023/04/01 03:39:04;;;;;;;25.98;13.57;;;;;;;8.28;100.00;99178.25;5224299;28;20087;-66
2023/04/01 03:41:38;;;;;;;29.30;14.73;;;;;;;8.27;100.00;99187.22;5223860;28;20051;-66
2023/04/01 03:44:09;;;;;;;28.55;14.50;;;;;;;8.29;100.00;99187.91;5225717;28;20064;-66
2023/04/01 03:46:41;;;;;;;29.38;14.88;;;;;;;8.29;100.00;99193.22;5226088;28;20025;-66
2023/04/01 03:49:12;;;;;;;30.30;13.95;;;;;;;8.29;100.00;99188.75;5222769;28;20033;-66
2023/04/01 03:51:44;;;;;;;26.75;13.45;;;;;;;8.29;100.00;99188.75;5222370;28;20021;-66
2023/04/01 03:54:16;;;;;;;25.55;12.73;;;;;;;8.28;100.00;99188.88;5222407;28;20053;-66
2023/04/01 03:56:48;;;;;;;23.70;12.57;;;;;;;8.27;100.00;99196.00;5226214;28;20431;-66
2023/04/01 03:59:19;;;;;;;21.77;10.98;;;;;;;8.27;100.00;99196.00;5223709;28;20025;-66
2023/04/01 04:01:51;;;;;;;20.95;10.80;;;;;;;8.25;100.00;99192.66;5222081;28;20503;-66
2023/04/01 04:04:22;;;;;;;20.77;11.43;;;;;;;8.25;100.00;99196.16;5222553;28;20152;-66
2023/04/01 04:06:54;;;;;;;19.45;10.55;;;;;;;8.25;100.00;99197.97;5225885;28;20498;-66
2023/04/01 04:09:26;;;;;;;22.92;11.00;;;;;;;8.25;100.00;99195.31;5226267;28;20028;-66
2023/04/01 04:11:57;;;;;;;17.40;9.73;;;;;;;8.23;100.00;99208.75;5223936;28;20376;-66
2023/04/01 04:14:28;;;;;;;18.02;10.07;;;;;;;8.23;100.00;99202.59;5220296;28;20037;-66
2023/04/01 04:17:00;;;;;;;19.10;10.50;;;;;;;8.23;100.00;99210.56;5220783;28;20033;-66
2023/04/01 04:19:33;;;;;;;18.02;10.10;;;;;;;8.24;100.00;99221.03;5224909;28;20095;-66
2023/04/01 04:22:04;;;;;;;16.02;9.35;;;;;;;8.22;100.00;99212.38;5225643;28;20022;-66
2023/04/01 04:24:36;;;;;;;16.60;9.32;;;;;;;8.20;100.00;99218.81;5221928;28;20059;-65
2023/04/01 04:27:08;;;;;;;13.75;7.63;;;;;;;8.20;100.00;99227.63;5223474;28;20034;-66
2023/04/01 04:29:39;;;;;;;18.23;9.02;;;;;;;8.18;100.00;99229.56;5218558;28;20048;-66
2023/04/01 04:32:11;;;;;;;15.25;8.38;;;;;;;8.14;100.00;99222.03;5221818;28;20112;-66
2023/04/01 04:34:42;;;;;;;14.52;8.32;;;;;;;8.16;100.00;99233.38;5226046;28;20029;-66
2023/04/01 04:37:14;;;;;;;15.35;8.07;;;;;;;8.15;100.00;99234.34;5225434;28;20464;-66
2023/04/01 04:39:45;;;;;;;12.15;6.90;;;;;;;8.14;100.00;99232.66;5225818;28;20490;-66
2023/04/01 04:42:17;;;;;;;13.63;7.18;;;;;;;8.10;100.00;99232.13;5228594;28;20498;-66
2023/04/01 04:44:48;;;;;;;14.50;7.35;;;;;;;8.08;100.00;99230.59;5225587;28;20116;-65
2023/04/01 04:47:19;;;;;;;10.23;6.60;;;;;;;8.09;100.00;99240.22;5221142;28;20030;-65
2023/04/01 04:49:51;;;;;;;11.13;6.65;;;;;;;8.09;100.00;99242.88;5221273;28;20029;-66
2023/04/01 04:52:22;;;;;;;14.98;6.70;;;;;;;8.08;100.00;99238.56;5223987;28;20031;-65
2023/04/01 04:54:53;;;;;;;11.52;6.03;;;;;;;8.05;100.00;99248.50;5222655;28;20053;-65
2023/04/01 04:57:25;;;;;;;8.98;5.63;;;;;;;8.04;100.00;99245.97;5226116;28;20059;-65
2023/04/01 04:59:56;;;;;;;18.27;6.57;;;;;;;8.03;100.00;99249.59;5221624;28;20046;-65
2023/04/01 05:02:28;;;;;;;9.02;6.18;;;;;;;8.01;100.00;99259.50;5222368;28;20030;-66
2023/04/01 05:04:59;;;;;;;12.02;6.57;;;;;;;8.00;100.00;99264.00;5224118;28;20120;-65
2023/04/01 05:07:31;;;;;;;10.20;6.20;;;;;;;8.00;100.00;99260.50;5221681;28;20037;-65
2023/04/01 05:10:03;;;;;;;11.55;6.25;;;;;;;8.00;100.00;99260.50;5225261;28;20037;-65
2023/04/01 05:12:37;;;;;;;10.32;5.88;;;;;;;7.99;100.00;99270.28;5224756;28;20030;-65
2023/04/01 05:15:09;;;;;;;9.68;5.10;;;;;;;7.97;100.00;99263.44;5226162;28;20037;-65
2023/04/01 05:17:40;;;;;;;8.77;5.40;;;;;;;7.96;100.00;99273.22;5226301;28;20072;-66
2023/04/01 05:20:13;;;;;;;8.98;5.55;;;;;;;7.95;100.00;99274.19;5229171;28;20029;-65
2023/04/01 05:22:44;;;;;;;9.25;5.18;;;;;;;7.96;100.00;99277.69;5225980;28;20128;-65
2023/04/01 05:25:16;;;;;;;8.93;5.25;;;;;;;7.94;100.00;99276.97;5228886;28;20025;-65
2023/04/01 05:27:47;;;;;;;8.52;4.88;;;;;;;7.94;100.00;99288.47;5227084;28;20045;-65
2023/04/01 05:30:19;;;;;;;8.52;5.05;;;;;;;7.94;100.00;99287.59;5227751;28;20029;-65
2023/04/01 05:32:51;;;;;;;7.63;4.60;;;;;;;7.94;100.00;99288.47;5225639;28;20029;-65
2023/04/01 05:35:23;;;;;;;7.95;4.88;;;;;;;7.97;100.00;99295.31;5229236;28;20041;-65
2023/04/01 05:37:54;;;;;;;9.07;4.95;;;;;;;7.95;100.00;99306.06;5226759;28;20021;-65
2023/04/01 05:40:25;;;;;;;9.50;5.40;;;;;;;7.95;100.00;99314.03;5226697;28;20464;-65
2023/04/01 05:42:58;;;;;;;10.32;5.40;;;;;;;7.95;100.00;99308.72;5220161;28;20488;-65
2023/04/01 05:45:29;;;;;;;10.32;5.13;;;;;;;7.94;100.00;99315.00;5226151;28;20033;-66
2023/04/01 05:48:01;;;;;;;9.10;5.28;;;;;;;7.95;100.00;99315.84;5225219;28;20076;-65
2023/04/01 05:50:33;;;;;;;10.00;5.63;;;;;;;7.95;100.00;99322.00;5230218;28;20033;-66
2023/04/01 05:53:04;;;;;;;12.98;6.32;;;;;;;7.95;100.00;99329.13;5229133;28;20014;-66
2023/04/01 05:55:36;;;;;;;12.27;6.35;;;;;;;7.96;100.00;99329.00;5227793;28;20029;-65
2023/04/01 05:58:07;;;;;;;15.90;7.55;;;;;;;7.95;100.00;99329.97;5225576;28;20067;-66
2023/04/01 06:00:39;;;;;;;16.52;8.23;;;;;;;7.96;100.00;99336.97;5229863;28;20061;-66
2023/04/01 06:03:10;;;;;;;14.10;7.63;;;;;;;7.97;100.00;99333.31;5224884;28;20021;-65
2023/04/01 06:05:43;;;;;;;15.77;8.30;;;;;;;7.98;100.00;99342.16;5224218;28;20030;-66
2023/04/01 06:08:17;;;;;;;14.65;8.05;;;;;;;7.98;100.00;99353.59;5228368;28;20427;-66
2023/04/01 06:11:05;;;;;;;15.40;7.82;;;;;;;8.00;100.00;99354.28;5227703;28;20029;-65
2023/04/01 06:13:43;;;;;;;13.32;7.80;;;;;;;8.00;100.00;99364.91;5238737;28;20064;-65
2023/04/01 06:16:53;;;;;;;16.05;8.50;;;;;;;8.01;100.00;99366.59;5230772;28;20167;-65
2023/04/01 06:19:44;;;;;;;16.10;8.10;;;;;;;8.03;100.00;99374.41;5228578;28;20053;-65
2023/04/01 06:22:46;;;;;;;14.57;7.78;;;;;;;8.04;100.00;99373.47;5235471;28;20131;-66
2023/04/01 06:26:09;;;;;;;17.48;8.10;;;;;;;8.05;100.00;99375.97;5226100;28;20061;-65
2023/04/01 06:28:52;;;;;;;15.77;8.35;;;;;;;8.07;100.00;99380.31;5205973;28;20076;-65
2023/04/01 06:31:44;;;;;;;15.30;8.10;;;;;;;8.09;100.00;99383.66;5226334;28;20079;-66
2023/04/01 06:34:33;;;;;;;17.77;8.75;;;;;;;8.10;100.00;99378.22;5221816;28;20123;-65
2023/04/01 06:37:10;;;;;;;15.60;9.00;;;;;;;8.10;100.00;99391.50;5222571;28;20131;-65
2023/04/01 06:39:47;;;;;;;22.50;11.13;;;;;;;8.12;100.00;99392.19;5228408;28;20041;-66
2023/04/01 06:42:22;;;;;;;20.50;10.63;;;;;;;8.15;100.00;99399.03;5238561;28;20048;-65
2023/04/01 06:44:55;;;;;;;;;;;;;;;8.16;100.00;99393.59;5226244;28;20033;-66
2023/04/01 06:47:41;;;;;;;24.02;11.57;;;;;;;8.17;100.00;99405.06;5230520;28;19963;-66
2023/04/01 06:50:19;;;;;;;23.80;12.43;;;;;;;8.19;100.00;99408.44;5230342;28;20029;-66
2023/04/01 06:53:06;;;;;;;23.75;12.77;;;;;;;8.19;100.00;99408.44;5234978;28;20819;-65
2023/04/01 06:55:49;;;;;;;29.42;14.60;;;;;;;8.24;100.00;99408.84;5230930;28;20032;-65
2023/04/01 06:58:33;;;;;;;28.00;14.65;;;;;;;8.26;100.00;99425.50;5219260;28;20021;-65
2023/04/01 07:01:10;;;;;;;32.45;16.10;;;;;;;8.30;100.00;99426.88;5229797;28;20077;-66
2023/04/01 07:03:47;;;;;;;30.15;15.77;;;;;;;8.34;100.00;99427.47;5228402;28;20028;-66
2023/04/01 07:06:27;;;;;;;33.08;16.58;;;;;;;8.37;100.00;99436.00;5234829;28;20037;-65
2023/04/01 07:09:04;;;;;;;34.63;18.05;;;;;;;8.40;100.00;99433.06;5235040;28;20025;-66
2023/04/01 07:11:38;;;;;;;38.17;19.02;;;;;;;8.44;100.00;99433.69;5228857;28;20059;-65
2023/04/01 07:14:24;;;;;;;;;;;;;;;8.47;100.00;99437.88;5220822;28;20037;-66
2023/04/01 07:17:07;;;;;;;37.58;19.10;;;;;;;8.52;100.00;99438.28;5221762;28;19921;-65
2023/04/01 07:19:53;;;;;;;37.72;19.90;;;;;;;8.55;100.00;99445.97;5221507;28;20590;-65
2023/04/01 07:22:27;;;;;;;40.13;20.58;;;;;;;8.61;100.00;99446.28;5226916;28;20138;-65
2023/04/01 07:25:10;;;;;;;38.22;20.73;;;;;;;8.61;100.00;99448.94;5222940;28;20603;-65
2023/04/01 07:27:43;;;;;;;38.22;20.67;;;;;;;8.60;100.00;99455.22;5228476;28;20477;-66
2023/04/01 07:30:17;;;;;;;44.17;24.63;;;;;;;8.62;100.00;99457.75;5229137;28;20124;-65
2023/04/01 07:32:55;;;;;;;43.17;23.33;;;;;;;8.63;100.00;99457.59;5226151;28;20022;-65
2023/04/01 07:35:30;;;;;;;41.95;22.60;;;;;;;8.64;100.00;99469.06;5231032;28;20123;-65
2023/04/01 07:38:04;;;;;;;;;;;;;;;8.68;100.00;99473.13;5230098;28;20514;-65
2023/04/01 07:40:47;;;;;;;47.22;22.88;;;;;;;8.69;100.00;99480.16;5218161;28;20010;-65
2023/04/01 07:43:37;;;;;;;44.22;23.40;;;;;;;8.74;100.00;99485.88;5227546;28;20033;-66
2023/04/01 07:46:30;;;;;;;40.95;23.00;;;;;;;8.71;100.00;99483.50;5228833;28;20027;-65
2023/04/01 07:49:17;;;;;;;45.28;21.85;;;;;;;8.73;100.00;99491.34;5224104;28;20033;-65
2023/04/01 07:52:29;;;;;;;41.83;23.05;;;;;;;8.70;100.00;99496.94;5227610;28;20645;-65
2023/04/01 07:55:18;;;;;;;46.45;23.77;;;;;;;8.70;100.00;99495.09;5222785;28;20495;-66
2023/04/01 07:58:10;;;;;;;38.50;22.80;;;;;;;8.69;100.00;99501.41;5227045;28;20029;-65
2023/04/01 08:00:50;;;;;;;41.40;23.52;;;;;;;8.70;100.00;99513.72;5225443;28;20111;-65
2023/04/01 08:03:35;;;;;;;38.80;22.80;;;;;;;8.72;100.00;99514.41;5226653;28;20061;-65
2023/04/01 08:06:22;;;;;;;45.35;24.40;;;;;;;8.78;100.00;99521.88;5229486;28;20029;-65
2023/04/01 08:09:13;;;;;;;45.28;24.20;;;;;;;8.86;100.00;99520.31;5228638;28;20923;-65
2023/04/01 08:12:07;;;;;;;41.35;24.05;;;;;;;8.90;100.00;99530.53;5226200;28;20033;-65
2023/04/01 08:15:02;;;;;;;36.85;22.40;;;;;;;8.96;100.00;99529.16;5227544;28;20068;-65
2023/04/01 08:18:03;;;;;;;40.22;23.02;;;;;;;9.01;100.00;99533.06;5227702;28;20037;-65
2023/04/01 08:20:42;;;;;;;38.88;22.25;;;;;;;9.09;100.00;99534.16;5226282;28;20022;-65
2023/04/01 08:23:28;;;;;;;38.28;21.77;;;;;;;9.09;100.00;99539.50;5227695;28;20124;-65
2023/04/01 08:26:07;;;;;;;39.22;22.77;;;;;;;9.15;100.00;99546.94;5226220;28;20029;-65
2023/04/01 08:28:44;;;;;;;43.67;24.30;;;;;;;9.20;100.00;99548.19;5226998;28;20129;-65
2023/04/01 08:31:24;;;;;;;41.40;23.83;;;;;;;9.16;100.00;99551.25;5229096;28;20036;-65
2023/04/01 08:33:56;;;;;;;36.83;22.52;;;;;;;9.17;100.00;99559.13;5221762;28;20060;-65
2023/04/01 08:36:35;;;;;;;40.28;23.75;;;;;;;9.17;100.00;99559.13;5229666;28;20064;-65
2023/04/01 08:39:18;;;;;;;40.92;23.80;;;;;;;9.18;100.00;99558.13;5219919;28;20084;-65
2023/04/01 08:42:13;;;;;;;38.28;24.40;;;;;;;9.16;100.00;99561.91;5229674;28;20048;-65
2023/04/01 08:44:50;;;;;;;36.35;22.15;;;;;;;9.19;100.00;99570.47;5223238;28;20036;-66
2023/04/01 08:47:28;;;;;;;39.63;21.83;;;;;;;9.21;100.00;99573.81;5228458;28;20132;-65
2023/04/01 08:50:24;;;;;;;36.80;22.40;;;;;;;9.22;100.00;99572.84;5225557;28;20560;-65
2023/04/01 08:53:17;;;;;;;39.60;23.90;;;;;;;9.28;100.00;99579.44;5229505;28;20026;-65
2023/04/01 08:56:05;;;;;;;35.75;21.67;;;;;;;9.33;100.00;99577.16;5230489;28;20555;-65
2023/04/01 08:59:14;;;;;;;33.25;21.58;;;;;;;9.36;100.00;99584.06;5226074;28;20072;-65
2023/04/01 09:02:15;;;;;;;35.30;20.63;;;;;;;9.47;100.00;99597.19;5239120;28;20037;-65
2023/04/01 09:05:05;;;;;;;33.15;20.10;;;;;;;9.52;100.00;99596.78;5219034;28;20037;-65
2023/04/01 09:07:55;;;;;;;31.08;20.27;;;;;;;9.50;100.00;99596.94;5230883;28;20408;-65
2023/04/01 09:10:51;;;;;;;29.45;20.33;;;;;;;9.57;100.00;99597.22;5227504;28;20029;-65
2023/04/01 09:13:42;;;;;;;29.30;19.48;;;;;;;9.61;100.00;99611.94;5232574;28;20037;-65
2023/04/01 09:16:57;;;;;;;20.73;15.45;;;;;;;9.69;100.00;99608.56;5227068;28;20041;-65
2023/04/01 09:19:46;;;;;;;22.08;15.10;;;;;;;9.61;100.00;99611.94;5227650;28;20072;-65
2023/04/01 09:22:57;;;;;;;21.08;15.10;;;;;;;9.60;100.00;99621.72;5224242;28;20041;-65
2023/04/01 09:25:57;;;;;;;21.67;15.77;;;;;;;9.60;100.00;99623.53;5229784;28;20041;-65
2023/04/01 09:28:45;;;;;;;22.50;15.55;;;;;;;9.61;100.00;99627.91;5227714;28;20064;-65
2023/04/01 09:31:28;;;;;;;20.30;14.85;;;;;;;9.64;100.00;99634.75;5227327;28;20033;-66
2023/04/01 09:34:06;;;;;;;19.15;14.27;;;;;;;9.59;100.00;99628.03;5228734;28;20399;-65
2023/04/01 09:36:45;;;;;;;18.58;14.82;;;;;;;9.56;100.00;99627.47;5228838;28;20038;-65
2023/04/01 09:39:38;;;;;;;19.50;13.98;;;;;;;9.54;100.00;99632.09;5225504;28;20041;-65
2023/04/01 09:42:13;;;;;;;17.23;13.60;;;;;;;9.48;100.00;99638.00;5230280;28;20021;-65
2023/04/01 09:44:53;;;;;;;;;;;;;;;9.51;100.00;99635.91;5229443;28;20521;-66
2023/04/01 09:47:35;;;;;;;16.33;11.90;;;;;;;9.41;100.00;99640.34;5227762;28;20318;-65
2023/04/01 09:50:19;;;;;;;16.13;11.50;;;;;;;9.42;100.00;99639.41;5227084;28;20060;-65
2023/04/01 09:53:15;;;;;;;16.57;12.73;;;;;;;9.44;100.00;99640.09;5225246;28;20037;-65
2023/04/01 09:56:13;;;;;;;16.10;12.07;;;;;;;9.45;100.00;99646.25;5229766;28;20375;-63
2023/04/01 09:59:08;;;;;;;16.75;12.88;;;;;;;9.53;100.00;99652.56;5226611;28;20026;-65
2023/04/01 10:01:52;;;;;;;16.65;11.55;;;;;;;9.49;100.00;99659.16;5223935;28;20084;-66
2023/04/01 10:04:33;;;;;;;17.48;11.95;;;;;;;9.49;100.00;99664.50;5229610;28;20034;-65
2023/04/01 10:07:23;;;;;;;17.83;11.13;;;;;;;9.49;100.00;99663.63;5229901;28;20511;-65
2023/04/01 10:10:35;;;;;;;16.52;11.80;;;;;;;9.53;100.00;99665.03;5226365;28;20703;-65
2023/04/01 10:13:22;;;;;;;17.83;12.07;;;;;;;9.42;100.00;99668.69;5224393;28;20057;-65
2023/04/01 10:16:10;;;;;;;18.27;12.77;;;;;;;9.46;100.00;99667.41;5223876;28;20045;-65
2023/04/01 10:19:25;;;;;;;19.67;13.45;;;;;;;9.47;100.00;99671.75;5230446;28;20167;-65
2023/04/01 10:22:12;;;;;;;17.23;12.77;;;;;;;9.44;100.00;99677.38;5220308;28;20022;-65
2023/04/01 10:25:04;;;;;;;19.95;13.93;;;;;;;9.46;100.00;99687.88;5225348;28;20120;-65
2023/04/01 10:28:12;;;;;;;21.02;14.35;;;;;;;9.44;100.00;99682.69;5228529;28;20037;-65
2023/04/01 10:31:08;;;;;;;21.55;15.30;;;;;;;9.47;100.00;99679.72;5229272;28;20033;-65
2023/04/01 10:33:58;;;;;;;19.20;14.38;;;;;;;9.47;100.00;99686.88;5224743;28;20026;-65
2023/04/01 10:36:58;;;;;;;20.58;14.98;;;;;;;9.42;100.00;99687.31;5222720;28;20049;-65
2023/04/01 10:39:33;;;;;;;21.55;14.95;;;;;;;9.39;100.00;99690.25;5226670;28;20106;-65
2023/04/01 10:42:25;;;;;;;20.77;15.73;;;;;;;9.44;100.00;99676.53;5226020;28;20029;-65
2023/04/01 10:45:24;;;;;;;20.42;16.38;;;;;;;9.41;100.00;99689.16;5225880;28;20481;-65
2023/04/01 10:48:25;;;;;;;20.67;15.13;;;;;;;9.45;100.00;99689.69;5230487;28;20116;-65
2023/04/01 10:51:16;;;;;;;19.83;15.85;;;;;;;9.47;100.00;99694.88;5223751;28;20033;-65
2023/04/01 10:54:15;;;;;;;22.70;15.85;;;;;;;9.47;100.00;99697.53;5227651;28;20068;-65
2023/04/01 10:56:56;;;;;;;25.38;17.42;;;;;;;9.47;100.00;99700.19;5236620;28;20060;-64
2023/04/01 10:59:40;;;;;;;24.83;16.00;;;;;;;9.44;100.00;99705.81;5225535;28;20049;-65
2023/04/01 11:02:40;;;;;;;24.10;16.50;;;;;;;9.51;100.00;99710.44;5225977;28;20036;-65
2023/04/01 11:05:35;;;;;;;23.38;16.48;;;;;;;9.44;100.00;99709.31;5224909;28;20045;-65
2023/04/01 11:08:28;;;;;;;23.52;16.13;;;;;;;9.48;100.00;99716.03;5228537;28;20053;-65
2023/04/01 11:11:33;;;;;;;25.05;17.50;;;;;;;9.49;100.00;99711.56;5229863;28;20045;-65
2023/04/01 11:14:26;;;;;;;25.38;16.52;;;;;;;9.49;100.00;99717.75;5227781;28;20033;-65
2023/04/01 11:17:19;;;;;;;24.45;17.08;;;;;;;9.59;100.00;99723.06;5232787;28;20060;-65
2023/04/01 11:20:34;;;;;;;24.13;17.63;;;;;;;9.67;100.00;99725.88;5222169;28;20080;-65
2023/04/01 11:23:22;;;;;;;22.00;16.23;;;;;;;9.67;100.00;99727.69;5226303;28;20116;-65
2023/04/01 11:26:07;;;;;;;21.08;16.25;;;;;;;9.72;100.00;99728.97;5228248;28;20044;-65
2023/04/01 11:28:50;;;;;;;21.58;15.88;;;;;;;9.69;100.00;99733.72;5230903;28;20036;-65
2023/04/01 11:31:46;;;;;;;22.25;16.13;;;;;;;9.70;100.00;99732.72;5229127;28;20033;-65
2023/04/01 11:34:35;;;;;;;21.17;15.15;;;;;;;9.68;100.00;99732.88;5223363;28;20083;-65
2023/04/01 11:37:10;;;;;;;20.45;15.68;;;;;;;9.67;100.00;99749.84;5232876;28;20020;-65
2023/04/01 11:40:04;;;;;;;21.30;14.88;;;;;;;9.69;100.00;99741.72;5231854;28;20033;-66
2023/04/01 11:43:08;;;;;;;21.85;16.65;;;;;;;9.71;100.00;99747.75;5232338;28;20154;-65
2023/04/01 11:45:48;;;;;;;20.83;15.48;;;;;;;9.72;100.00;99744.94;5229801;28;20049;-65
2023/04/01 11:48:48;;;;;;;24.02;16.65;;;;;;;9.72;100.00;99752.94;5229706;28;20022;-65
2023/04/01 11:51:34;;;;;;;20.85;16.05;;;;;;;9.73;100.00;99754.59;5231873;28;20021;-65
2023/04/01 11:54:29;;;;;;;22.00;16.05;;;;;;;9.78;100.00;99772.84;5233961;28;20056;-65
2023/04/01 11:57:29;;;;;;;20.67;13.90;;;;;;;9.75;100.00;99767.78;5235846;28;20048;-65
2023/04/01 12:00:19;;;;;;;21.73;14.55;;;;;;;9.67;100.00;99768.50;5219870;28;20504;-65
2023/04/01 12:03:28;;;;;;;20.92;15.23;;;;;;;9.70;100.00;99783.34;5230178;28;20033;-65
2023/04/01 12:06:14;;;;;;;20.25;13.88;;;;;;;9.68;100.00;99775.47;5235442;28;20040;-65
2023/04/01 12:08:57;;;;;;;16.17;12.40;;;;;;;9.69;100.00;99781.69;5230101;28;20029;-65
2023/04/01 12:11:40;;;;;;;17.80;13.07;;;;;;;9.68;100.00;99786.13;5232121;28;20033;-65
2023/04/01 12:15:05;;;;;;;18.85;13.55;;;;;;;9.71;100.00;99785.03;5236832;28;20028;-65
2023/04/01 12:17:50;;;;;;;16.50;12.07;;;;;;;9.68;100.00;99788.78;5230824;28;20372;-65
2023/04/01 12:20:59;;;;;;;18.50;12.38;;;;;;;9.68;100.00;99786.13;5231343;28;20065;-66
2023/04/01 12:23:34;;;;;;;15.57;11.77;;;;;;;9.60;100.00;99792.16;5231891;28;20128;-65
2023/04/01 12:26:53;;;;;;;17.92;12.48;;;;;;;9.64;100.00;99798.03;5234060;28;20028;-66